Time;durP1;ratioP1;P1;durP2;ratioP2;P2;SDS_P1;SDS_P2;PMS_P1;PMS_P2;Temp;Humidity;BMP_temperature;BMP_pressure;BME280_temperature;BME280_humidity;BME280_pressure;Samples;Min_cycle;Max_cycle;Signal;HPM_P1;HPM_P2
2023/06/17 00:01:55;;;;;;;;;;;;;;;16.47;68.12;101682.97;4945012;28;19918;-72
2023/06/17 00:04:20;;;;;;;;;;;;;;;16.47;66.89;101682.97;4942252;28;19926;-72
2023/06/17 00:06:45;;;;;;;;;;;;;;;16.36;68.02;101680.81;4930661;29;19977;-71
2023/06/17 00:09:10;;;;;;;;;;;;;;;16.34;67.36;101685.72;4943514;29;20356;-72
2023/06/17 00:11:36;;;;;;;;;;;;;;;16.31;68.56;101677.84;4945809;29;19918;-72
2023/06/17 00:14:03;;;;;;;;;;;;;;;16.29;67.51;101682.75;4950612;28;20398;-72
2023/06/17 00:16:28;;;;;;;;;;;;;;;16.25;68.09;101676.81;4947638;28;19947;-72
2023/06/17 00:18:53;;;;;;;;;;;;;;;16.23;69.53;101673.38;4946742;28;20396;-72
2023/06/17 00:21:19;;;;;;;;;;;;;;;16.23;69.89;101670.63;4947329;29;19921;-72
2023/06/17 00:23:45;;;;;;;;;;;;;;;16.14;71.11;101668.28;4950728;28;19925;-71
2023/06/17 00:26:10;;;;;;;;;;;;;;;16.18;71.14;101670.41;4944108;29;19914;-71
2023/06/17 00:28:35;;;;;;;;;;;;;;;16.20;72.04;101664.66;4947451;28;19925;-71
2023/06/17 00:31:01;;;;;;;;;;;;;;;16.14;72.80;101673.81;4934244;29;19933;-72
2023/06/17 00:33:26;;;;;;;;;;;;;;;16.07;73.87;101667.47;4948437;28;19924;-71
2023/06/17 00:35:51;;;;;;;;;;;;;;;16.08;73.28;101663.63;4946537;29;20331;-72
2023/06/17 00:38:16;;;;;;;;;;;;;;;16.03;72.04;101660.66;4944283;28;20366;-72
2023/06/17 00:40:42;;;;;;;;;;;;;;;15.97;71.90;101650.44;4934164;29;19914;-72
2023/06/17 00:43:07;;;;;;;;;;;;;;;15.93;73.08;101657.44;4945709;28;19984;-72
2023/06/17 00:45:38;;;;;;;;;;;;;;;15.84;74.76;101647.69;4950522;28;19914;-72
2023/06/17 00:48:05;;;;;;;;;;;;;;;15.81;75.17;101650.88;4946969;29;19922;-72
2023/06/17 00:50:32;;;;;;;;;;;;;;;15.71;75.21;101650.44;4948932;28;20365;-71
2023/06/17 00:52:58;;;;;;;;;;;;;;;15.72;74.82;101652.13;4946230;29;19915;-73
2023/06/17 00:55:23;;;;;;;;;;;;;;;15.67;75.36;101652.78;4931006;28;19914;-72
2023/06/17 00:57:49;;;;;;;;;;;;;;;15.71;74.49;101650.44;4945658;28;20378;-72
2023/06/17 01:00:15;;;;;;;;;;;;;;;15.64;75.22;101655.09;4950647;28;19914;-73
2023/06/17 01:02:40;;;;;;;;;;;;;;;15.64;74.96;101657.88;4947171;28;20010;-71
2023/06/17 01:05:11;;;;;;;;;;;;;;;15.56;75.39;101655.28;4933034;28;19914;-71
2023/06/17 01:08:09;;;;;;;;;;;;;;;15.59;74.38;101643.84;4948107;29;19918;-73
2023/06/17 01:10:42;;;;;;;;;;;;;;;15.49;75.86;101648.91;4907873;29;19915;-73
2023/06/17 01:13:09;;;;;;;;;;;;;;;15.52;77.42;101654.88;4944512;29;20018;-73
2023/06/17 01:15:34;;;;;;;;;;;;;;;15.54;77.60;101652.72;4950081;28;19941;-73
2023/06/17 01:18:01;;;;;;;;;;;;;;;15.59;77.06;101658.47;4948468;29;19925;-73
2023/06/17 01:20:28;;;;;;;;;;;;;;;15.58;76.47;101658.72;4945289;28;20242;-73
2023/06/17 01:22:54;;;;;;;;;;;;;;;15.48;76.20;101642.53;4947239;28;19918;-74
2023/06/17 01:25:29;;;;;;;;;;;;;;;15.48;75.59;101647.22;4947075;29;19949;-71
2023/06/17 01:27:55;;;;;;;;;;;;;;;15.46;76.53;101652.09;4943201;29;19962;-73
2023/06/17 01:30:20;;;;;;;;;;;;;;;15.47;76.64;101654.63;4945168;28;19958;-71
2023/06/17 01:32:45;;;;;;;;;;;;;;;15.44;77.03;101659.72;4950581;28;19962;-71
2023/06/17 01:35:13;;;;;;;;;;;;;;;15.40;76.36;101662.06;4943169;28;19918;-71
2023/06/17 01:37:45;;;;;;;;;;;;;;;15.45;76.12;101654.00;4945807;29;20389;-72
2023/06/17 01:40:12;;;;;;;;;;;;;;;15.44;76.63;101654.22;4943697;29;20322;-73
2023/06/17 01:42:43;;;;;;;;;;;;;;;15.41;77.02;101658.25;4945182;29;19921;-72
2023/06/17 01:45:09;;;;;;;;;;;;;;;15.43;77.02;101652.53;4943183;29;20700;-73
2023/06/17 01:47:34;;;;;;;;;;;;;;;15.43;76.24;101658.88;4945355;29;19914;-73
2023/06/17 01:50:02;;;;;;;;;;;;;;;15.35;77.35;101652.69;4944063;29;19927;-73
2023/06/17 01:52:27;;;;;;;;;;;;;;;15.32;76.76;101653.94;4933954;29;19918;-73
2023/06/17 01:54:53;;;;;;;;;;;;;;;15.32;77.48;101658.63;4932275;29;19925;-73
2023/06/17 01:57:18;;;;;;;;;;;;;;;15.25;76.68;101658.59;4950475;29;19994;-73
2023/06/17 01:59:44;;;;;;;;;;;;;;;15.17;76.42;101660.69;4945297;28;19971;-72
2023/06/17 02:02:09;;;;;;;;;;;;;;;15.16;75.52;101653.47;4948466;28;19942;-72
2023/06/17 02:04:35;;;;;;;;;;;;;;;15.10;76.20;101646.03;4948580;28;20433;-72
2023/06/17 02:07:00;;;;;;;;;;;;;;;15.08;75.66;101645.38;4948204;28;20239;-72
2023/06/17 02:09:26;;;;;;;;;;;;;;;15.13;75.89;101646.47;4944058;28;19914;-71
2023/06/17 02:11:51;;;;;;;;;;;;;;;15.03;77.09;101646.00;4949376;28;19921;-70
2023/06/17 02:14:16;;;;;;;;;;;;;;;15.07;77.28;101640.91;4927802;29;19977;-72
2023/06/17 02:16:48;;;;;;;;;;;;;;;15.04;77.10;101633.91;4928853;29;19922;-72
2023/06/17 02:19:15;;;;;;;;;;;;;;;15.03;76.05;101634.09;4942875;28;19919;-71
2023/06/17 02:21:42;;;;;;;;;;;;;;;15.01;76.88;101628.81;4948395;28;20013;-71
2023/06/17 02:24:08;;;;;;;;;;;;;;;14.93;78.03;101625.34;4944448;28;19921;-71
2023/06/17 02:26:33;;;;;;;;;;;;;;;14.90;77.85;101628.53;4930210;29;19915;-71
2023/06/17 02:28:58;;;;;;;;;;;;;;;14.87;77.55;101639.97;4954477;28;19969;-71
2023/06/17 02:31:26;;;;;;;;;;;;;;;14.85;77.18;101631.06;4945770;28;19968;-71
2023/06/17 02:33:51;;;;;;;;;;;;;;;14.85;77.90;101620.03;4941412;28;19918;-71
2023/06/17 02:36:18;;;;;;;;;;;;;;;14.79;80.19;101621.69;4931201;29;19922;-72
2023/06/17 02:38:44;;;;;;;;;;;;;;;14.70;79.29;101624.84;4944937;29;20285;-73
2023/06/17 02:41:09;;;;;;;;;;;;;;;14.70;80.41;101624.84;4943368;29;19914;-73
2023/06/17 02:43:34;;;;;;;;;;;;;;;14.68;81.27;101621.44;4940756;29;19910;-72
2023/06/17 02:46:00;;;;;;;;;;;;;;;14.63;80.96;101618.44;4946647;28;20312;-72
2023/06/17 02:48:25;;;;;;;;;;;;;;;14.51;80.79;101614.56;4944962;29;19914;-73
2023/06/17 02:50:53;;;;;;;;;;;;;;;14.49;81.82;101614.78;4945352;29;19997;-73
2023/06/17 02:53:19;;;;;;;;;;;;;;;14.44;83.32;101606.25;4946932;28;19929;-73
2023/06/17 02:55:45;;;;;;;;;;;;;;;14.44;84.26;101606.25;4944332;28;19914;-72
2023/06/17 02:58:14;;;;;;;;;;;;;;;14.46;84.24;101604.13;4924477;29;19918;-72
2023/06/17 03:00:40;;;;;;;;;;;;;;;14.43;83.11;101601.81;4946259;28;19914;-71
2023/06/17 03:03:06;;;;;;;;;;;;;;;14.43;84.10;101596.28;4943668;29;19922;-72
2023/06/17 03:05:31;;;;;;;;;;;;;;;14.44;82.37;101603.50;4930130;29;19918;-73
2023/06/17 03:07:57;;;;;;;;;;;;;;;14.34;82.19;101610.44;4946385;28;19911;-72
2023/06/17 03:10:22;;;;;;;;;;;;;;;14.37;83.53;101607.28;4944084;28;19915;-73
2023/06/17 03:12:47;;;;;;;;;;;;;;;14.34;84.82;101610.44;4944325;28;19959;-73
2023/06/17 03:15:13;;;;;;;;;;;;;;;14.35;84.07;101609.41;4945326;28;19915;-73
2023/06/17 03:17:38;;;;;;;;;;;;;;;14.42;84.77;101610.28;4946852;28;20309;-72
2023/06/17 03:20:06;;;;;;;;;;;;;;;14.34;85.32;101608.53;4944033;28;20026;-72
2023/06/17 03:22:33;;;;;;;;;;;;;;;14.28;84.69;101602.97;4945757;29;20386;-71
2023/06/17 03:24:58;;;;;;;;;;;;;;;14.33;86.30;101605.97;4943923;28;19925;-72
2023/06/17 03:27:24;;;;;;;;;;;;;;;14.33;86.60;101603.22;4946596;29;19910;-71
2023/06/17 03:29:49;;;;;;;;;;;;;;;14.33;85.42;101600.47;4943427;28;19915;-73
2023/06/17 03:32:14;;;;;;;;;;;;;;;14.33;86.33;101604.06;4945741;29;19984;-73
2023/06/17 03:34:40;;;;;;;;;;;;;;;14.32;85.98;101605.13;4946793;28;19918;-73
2023/06/17 03:37:05;;;;;;;;;;;;;;;14.32;85.69;101610.66;4943796;28;20353;-72
2023/06/17 03:39:31;;;;;;;;;;;;;;;14.37;85.78;101608.13;4945393;28;19981;-73
2023/06/17 03:41:57;;;;;;;;;;;;;;;14.37;86.63;101607.28;4947269;28;19919;-72
2023/06/17 03:44:23;;;;;;;;;;;;;;;14.36;86.54;101600.06;4948253;28;19987;-74
2023/06/17 03:46:49;;;;;;;;;;;;;;;14.42;87.46;101604.75;4948158;28;20001;-74
2023/06/17 03:49:14;;;;;;;;;;;;;;;14.45;87.01;101599.69;4951467;28;19914;-73
2023/06/17 03:51:40;;;;;;;;;;;;;;;14.42;86.98;101593.72;4949243;28;19922;-75
2023/06/17 03:54:05;;;;;;;;;;;;;;;14.43;86.63;101600.94;4930308;29;19914;-74
2023/06/17 03:56:30;;;;;;;;;;;;;;;14.49;87.39;101594.59;4915815;29;19926;-72
2023/06/17 03:58:57;;;;;;;;;;;;;;;14.53;88.20;101601.44;4929360;29;20022;-74
2023/06/17 04:01:22;;;;;;;;;;;;;;;14.53;86.65;101596.78;4949667;28;19981;-75
2023/06/17 04:03:47;;;;;;;;;;;;;;;14.65;87.41;101603.41;4951135;28;19915;-74
2023/06/17 04:06:13;;;;;;;;;;;;;;;14.66;87.98;101593.19;4949434;28;19961;-74
2023/06/17 04:08:39;;;;;;;;;;;;;;;14.65;86.96;101602.53;4950570;28;20013;-74
2023/06/17 04:11:04;;;;;;;;;;;;;;;14.65;86.55;101599.78;4930214;29;19923;-74
2023/06/17 04:13:30;;;;;;;;;;;;;;;14.68;87.23;101593.88;4946868;28;19941;-74
2023/06/17 04:15:56;;;;;;;;;;;;;;;14.73;86.92;101605.13;4956162;28;19928;-74
2023/06/17 04:18:24;;;;;;;;;;;;;;;14.74;85.69;101607.66;4941337;29;20448;-75
2023/06/17 04:20:49;;;;;;;;;;;;;;;14.82;86.51;101609.41;4957145;28;19925;-74
2023/06/17 04:23:15;;;;;;;;;;;;;;;14.86;85.83;101599.66;4934293;29;19914;-75
2023/06/17 04:25:40;;;;;;;;;;;;;;;14.92;85.46;101596.94;4932717;29;19918;-74
2023/06/17 04:28:07;;;;;;;;;;;;;;;14.95;84.67;101601.19;4949086;29;19926;-74
2023/06/17 04:30:33;;;;;;;;;;;;;;;14.99;84.39;101602.47;4946845;28;19941;-74
2023/06/17 04:33:00;;;;;;;;;;;;;;;15.05;83.84;101609.91;4949349;28;19915;-74
2023/06/17 04:35:26;;;;;;;;;;;;;;;15.12;83.70;101599.75;4949211;28;19929;-74
2023/06/17 04:37:54;;;;;;;;;;;;;;;15.21;83.60;101612.31;4955604;28;19918;-74
2023/06/17 04:40:20;;;;;;;;;;;;;;;15.33;83.54;101621.69;4951042;28;19945;-74
2023/06/17 04:42:47;;;;;;;;;;;;;;;15.40;83.71;101614.25;4946848;29;20551;-74
2023/06/17 04:45:12;;;;;;;;;;;;;;;15.48;82.99;101605.78;4947977;28;19918;-73
2023/06/17 04:47:38;;;;;;;;;;;;;;;15.55;82.70;101609.41;4944585;28;20293;-73
2023/06/17 04:50:03;;;;;;;;;;;;;;;15.65;82.55;101604.31;4946989;28;19930;-72
2023/06/17 04:52:30;;;;;;;;;;;;;;;15.74;81.46;101605.81;4948554;29;19926;-74
2023/06/17 04:54:55;;;;;;;;;;;;;;;15.85;80.71;101607.94;4948858;28;20370;-73
2023/06/17 04:57:21;;;;;;;;;;;;;;;15.95;81.03;101606.44;4950417;28;19929;-74
2023/06/17 04:59:46;;;;;;;;;;;;;;;16.08;80.14;101609.19;4949715;28;20013;-73
2023/06/17 05:02:13;;;;;;;;;;;;;;;16.17;79.46;101607.91;4936392;29;19961;-74
2023/06/17 05:04:38;;;;;;;;;;;;;;;16.27;79.59;101613.00;4931007;29;20022;-74
2023/06/17 05:07:03;;;;;;;;;;;;;;;16.43;77.68;101607.03;4930371;29;19918;-73
2023/06/17 05:09:29;;;;;;;;;;;;;;;16.60;76.65;101605.50;4947363;28;19918;-73
2023/06/17 05:11:54;;;;;;;;;;;;;;;16.93;76.00;101607.06;4933984;29;19968;-74
2023/06/17 05:14:20;;;;;;;;;;;;;;;17.69;73.67;101613.44;4946292;28;19915;-73
2023/06/17 05:16:45;;;;;;;;;;;;;;;18.60;69.28;101615.34;4949102;28;20425;-74
2023/06/17 05:19:10;;;;;;;;;;;;;;;19.50;65.12;101621.66;4945738;28;20013;-73
2023/06/17 05:21:35;;;;;;;;;;;;;;;20.57;62.30;101613.81;4949989;28;20298;-74
2023/06/17 05:24:01;;;;;;;;;;;;;;;21.30;58.12;101617.63;4949192;28;20333;-73
2023/06/17 05:26:27;;;;;;;;;;;;;;;21.84;57.73;101618.97;4946007;28;19925;-73
2023/06/17 05:28:52;;;;;;;;;;;;;;;22.44;53.54;101609.69;4945497;28;19918;-74
2023/06/17 05:31:17;;;;;;;;;;;;;;;22.85;51.68;101619.47;4946894;28;19953;-74
2023/06/17 05:33:43;;;;;;;;;;;;;;;23.33;50.16;101605.56;4936891;28;20377;-73
2023/06/17 05:36:08;;;;;;;;;;;;;;;23.72;47.21;101621.09;4940633;28;19922;-73
2023/06/17 05:38:33;;;;;;;;;;;;;;;24.41;44.84;101612.47;4947339;28;19977;-74
2023/06/17 05:40:59;;;;;;;;;;;;;;;24.24;46.06;101611.81;4945600;28;19921;-74
2023/06/17 05:43:27;;;;;;;;;;;;;;;24.93;42.41;101613.38;4951052;28;19969;-74
2023/06/17 05:45:53;;;;;;;;;;;;;;;24.72;45.42;101620.00;4944806;28;20001;-74
2023/06/17 05:48:18;;;;;;;;;;;;;;;25.00;42.40;101613.13;4947876;28;20041;-74
2023/06/17 05:50:43;;;;;;;;;;;;;;;25.10;42.67;101616.81;4951484;28;19981;-74
2023/06/17 05:53:09;;;;;;;;;;;;;;;25.01;42.63;101612.00;4945677;29;19918;-73
2023/06/17 05:55:34;;;;;;;;;;;;;;;25.19;41.20;101611.53;4950969;29;20010;-73
2023/06/17 05:57:59;;;;;;;;;;;;;;;25.20;41.98;101618.81;4930737;29;20389;-74
2023/06/17 06:00:25;;;;;;;;;;;;;;;25.50;41.89;101619.78;4943662;28;20001;-75
2023/06/17 06:02:50;;;;;;;;;;;;;;;25.79;41.85;101611.69;4947605;28;20076;-73
2023/06/17 06:05:15;;;;;;;;;;;;;;;26.27;40.13;101617.66;4930392;28;19918;-74
2023/06/17 06:07:43;;;;;;;;;;;;;;;26.48;39.65;101622.13;4947167;28;20037;-74
2023/06/17 06:10:08;;;;;;;;;;;;;;;26.91;37.98;101615.88;4945940;28;19917;-74
2023/06/17 06:12:34;;;;;;;;;;;;;;;26.99;37.68;101620.06;4946153;28;19915;-74
2023/06/17 06:15:05;;;;;;;;;;;;;;;26.86;36.83;101624.31;4945516;29;19937;-74
2023/06/17 06:17:31;;;;;;;;;;;;;;;27.20;37.45;101621.69;4946796;28;20402;-74
2023/06/17 06:19:56;;;;;;;;;;;;;;;27.10;37.47;101618.88;4944978;29;19918;-73
2023/06/17 06:22:21;;;;;;;;;;;;;;;27.04;36.98;101603.16;4934742;28;19923;-74
2023/06/17 06:24:47;;;;;;;;;;;;;;;27.82;35.02;101616.28;4945568;29;19961;-73
2023/06/17 06:27:12;;;;;;;;;;;;;;;27.42;35.40;101628.59;4944206;28;20285;-74
2023/06/17 06:29:37;;;;;;;;;;;;;;;27.19;35.06;101618.03;4930707;29;20293;-72
2023/06/17 06:32:03;;;;;;;;;;;;;;;27.68;34.54;101621.69;4931657;28;19918;-72
2023/06/17 06:34:28;;;;;;;;;;;;;;;27.60;34.84;101622.31;4929827;29;19922;-73
2023/06/17 06:36:56;;;;;;;;;;;;;;;28.06;33.47;101629.31;4947436;28;19924;-71
2023/06/17 06:39:21;;;;;;;;;;;;;;;27.94;33.70;101626.03;4928484;28;19945;-73
2023/06/17 06:41:46;;;;;;;;;;;;;;;28.22;33.73;101627.25;4946067;28;19918;-72
2023/06/17 06:44:12;;;;;;;;;;;;;;;28.16;32.73;101625.59;4941743;28;19997;-72
2023/06/17 06:46:37;;;;;;;;;;;;;;;27.80;35.48;101622.19;4945359;28;20017;-72
2023/06/17 06:49:02;;;;;;;;;;;;;;;28.28;33.71;101620.41;4945419;28;19914;-72
2023/06/17 06:51:29;;;;;;;;;;;;;;;28.21;33.00;101626.38;4944157;28;19926;-71
2023/06/17 06:53:55;;;;;;;;;;;;;;;27.84;32.97;101619.66;4946337;29;20251;-73
2023/06/17 06:56:20;;;;;;;;;;;;;;;27.58;33.34;101618.94;4927939;29;19969;-75
2023/06/17 06:58:46;;;;;;;;;;;;;;;27.38;34.31;101612.59;4946411;29;19949;-74
2023/06/17 07:01:13;;;;;;;;;;;;;;;27.43;34.71;101621.00;4946440;29;20433;-70
2023/06/17 07:03:38;;;;;;;;;;;;;;;27.83;33.17;101612.31;4943158;28;20274;-70
2023/06/17 07:06:04;;;;;;;;;;;;;;;28.07;31.87;101616.91;4946365;28;19922;-71
2023/06/17 07:08:29;;;;;;;;;;;;;;;27.61;32.48;101614.69;4949371;28;19914;-70
2023/06/17 07:10:54;;;;;;;;;;;;;;;27.99;33.29;101611.91;4951268;28;19918;-70
2023/06/17 07:13:19;;;;;;;;;;;;;;;28.30;32.69;101618.97;4949178;28;20326;-70
2023/06/17 07:15:45;;;;;;;;;;;;;;;27.49;33.47;101615.06;4943461;28;19946;-71
2023/06/17 07:18:11;;;;;;;;;;;;;;;27.95;33.41;101612.81;4944780;28;19918;-70
2023/06/17 07:20:37;;;;;;;;;;;;;;;27.86;32.52;101623.84;4943723;28;19981;-71
2023/06/17 07:23:02;;;;;;;;;;;;;;;27.34;33.90;101617.09;4946227;29;20275;-71
2023/06/17 07:25:27;;;;;;;;;;;;;;;26.98;34.04;101624.84;4948852;28;20294;-70
2023/06/17 07:27:56;;;;;;;;;;;;;;;27.27;34.82;101616.59;4942591;29;20001;-71
2023/06/17 07:30:21;;;;;;;;;;;;;;;27.41;34.11;101620.44;4946167;28;19972;-70
2023/06/17 07:32:47;;;;;;;;;;;;;;;27.23;34.47;101613.50;4943400;28;19957;-71
2023/06/17 07:35:12;;;;;;;;;;;;;;;27.34;33.48;101620.78;4946014;28;19915;-71
2023/06/17 07:37:37;;;;;;;;;;;;;;;27.45;34.04;101615.91;4947130;29;19946;-71
2023/06/17 07:40:05;;;;;;;;;;;;;;;27.41;34.78;101618.47;4943889;28;20362;-71
2023/06/17 07:42:30;;;;;;;;;;;;;;;27.27;35.67;101610.97;4944674;29;20001;-71
2023/06/17 07:44:55;;;;;;;;;;;;;;;27.01;35.14;101617.78;4943646;28;20048;-71
2023/06/17 07:47:21;;;;;;;;;;;;;;;26.84;34.77;101620.09;4945867;28;19934;-71
2023/06/17 07:49:47;;;;;;;;;;;;;;;26.19;36.00;101623.00;4955695;28;19918;-70
2023/06/17 07:52:12;;;;;;;;;;;;;;;26.48;34.97;101618.47;4943481;28;20015;-70
2023/06/17 07:54:37;;;;;;;;;;;;;;;26.14;35.91;101611.75;4925726;29;19914;-71
2023/06/17 07:57:03;;;;;;;;;;;;;;;26.42;34.99;101616.78;4947066;28;20009;-71
2023/06/17 07:59:29;;;;;;;;;;;;;;;26.53;35.15;101618.47;4946812;29;19918;-71
2023/06/17 08:01:54;;;;;;;;;;;;;;;25.78;35.49;101618.44;4944424;28;20386;-70
2023/06/17 08:04:19;;;;;;;;;;;;;;;26.03;35.01;101615.69;4945911;28;19924;-71
2023/06/17 08:06:45;;;;;;;;;;;;;;;25.97;35.25;101616.78;4930097;29;19918;-71
2023/06/17 08:09:12;;;;;;;;;;;;;;;26.49;34.86;101629.44;4947073;28;20301;-72
2023/06/17 08:11:37;;;;;;;;;;;;;;;26.19;35.29;101617.38;4946830;28;20009;-71
2023/06/17 08:14:02;;;;;;;;;;;;;;;26.36;34.72;101612.31;4941044;28;20013;-72
2023/06/17 08:16:28;;;;;;;;;;;;;;;26.34;34.75;101617.34;4931411;29;19922;-71
2023/06/17 08:18:53;;;;;;;;;;;;;;;26.20;35.46;101607.81;4946680;28;19921;-71
2023/06/17 08:21:18;;;;;;;;;;;;;;;26.26;35.21;101618.75;4944753;29;19966;-72
2023/06/17 08:23:43;;;;;;;;;;;;;;;26.73;34.21;101604.41;4944692;29;19914;-71
2023/06/17 08:26:09;;;;;;;;;;;;;;;26.25;33.36;101607.81;4944418;29;19977;-72
2023/06/17 08:28:34;;;;;;;;;;;;;;;25.63;34.19;101601.56;4943359;28;19922;-71
2023/06/17 08:30:59;;;;;;;;;;;;;;;25.96;34.11;101612.31;4952678;28;20460;-71
2023/06/17 08:33:25;;;;;;;;;;;;;;;26.14;34.72;101608.94;4949051;28;19952;-71
2023/06/17 08:35:50;;;;;;;;;;;;;;;26.11;34.33;101615.13;4947042;29;19933;-71
2023/06/17 08:38:15;;;;;;;;;;;;;;;26.34;34.08;101614.53;4946519;29;19926;-71
2023/06/17 08:40:43;;;;;;;;;;;;;;;26.14;33.10;101615.41;4946726;28;20020;-72
2023/06/17 08:43:08;;;;;;;;;;;;;;;25.83;34.60;101612.84;4945524;28;19923;-71
2023/06/17 08:45:34;;;;;;;;;;;;;;;26.32;34.25;101606.41;4952730;29;19922;-71
2023/06/17 08:47:59;;;;;;;;;;;;;;;26.46;32.66;101613.13;4945750;28;19968;-71
2023/06/17 08:50:26;;;;;;;;;;;;;;;26.40;33.50;101608.63;4946034;29;19918;-71
2023/06/17 08:52:52;;;;;;;;;;;;;;;26.41;31.79;101607.50;4947061;29;19918;-71
2023/06/17 08:55:17;;;;;;;;;;;;;;;26.29;32.92;101597.69;4947388;28;20294;-72
2023/06/17 08:57:43;;;;;;;;;;;;;;;26.21;33.38;101599.13;4947333;29;19922;-71
2023/06/17 09:00:10;;;;;;;;;;;;;;;26.50;33.30;101603.00;4929057;29;19919;-71
2023/06/17 09:02:36;;;;;;;;;;;;;;;26.62;33.69;101599.94;4947540;28;20004;-71
2023/06/17 09:05:02;;;;;;;;;;;;;;;26.86;32.75;101598.16;4949817;28;19918;-71
2023/06/17 09:07:27;;;;;;;;;;;;;;;26.89;32.07;101609.66;4945550;29;20378;-71
2023/06/17 09:09:56;;;;;;;;;;;;;;;27.11;32.03;101606.50;4948625;28;19921;-71
2023/06/17 09:12:25;;;;;;;;;;;;;;;26.73;31.36;101595.97;4931462;29;20013;-71
2023/06/17 09:14:52;;;;;;;;;;;;;;;26.70;30.79;101596.50;4946960;28;20108;-71
2023/06/17 09:17:29;;;;;;;;;;;;;;;27.01;30.84;101604.56;4943363;29;20247;-71
2023/06/17 09:19:55;;;;;;;;;;;;;;;27.28;30.13;101604.19;4947685;28;19942;-72
2023/06/17 09:22:20;;;;;;;;;;;;;;;27.16;29.16;101604.50;4945869;29;19918;-71
2023/06/17 09:24:46;;;;;;;;;;;;;;;27.56;29.49;101600.66;4929433;29;19918;-71
2023/06/17 09:27:21;;;;;;;;;;;;;;;27.77;30.28;101603.03;4945147;29;19969;-72
2023/06/17 09:29:48;;;;;;;;;;;;;;;27.92;29.99;101596.47;4947812;29;19918;-71
2023/06/17 09:32:13;;;;;;;;;;;;;;;27.87;30.06;101599.34;4943344;29;19910;-71
2023/06/17 09:34:47;;;;;;;;;;;;;;;27.47;30.46;101599.59;4947772;28;20306;-71
2023/06/17 09:37:12;;;;;;;;;;;;;;;27.73;29.98;101598.28;4943360;29;19923;-71
2023/06/17 09:39:37;;;;;;;;;;;;;;;27.66;28.57;101594.94;4946015;28;19914;-71
2023/06/17 09:42:07;;;;;;;;;;;;;;;27.84;29.01;101595.13;4929885;29;19918;-71
2023/06/17 09:44:33;;;;;;;;;;;;;;;27.74;29.71;101591.53;4945053;29;20269;-70
2023/06/17 09:47:04;;;;;;;;;;;;;;;27.82;29.27;101588.09;4949776;28;20009;-71
2023/06/17 09:49:32;;;;;;;;;;;;;;;27.83;29.89;101595.41;4949189;29;19918;-72
2023/06/17 09:51:59;;;;;;;;;;;;;;;28.14;29.63;101588.41;4945452;28;20334;-71
2023/06/17 09:54:24;;;;;;;;;;;;;;;28.29;29.41;101588.25;4944706;29;19946;-71
2023/06/17 09:56:50;;;;;;;;;;;;;;;28.26;28.98;101594.47;4945437;29;20425;-72
2023/06/17 09:59:18;;;;;;;;;;;;;;;28.56;29.06;101588.56;4945405;29;20002;-71
2023/06/17 10:01:44;;;;;;;;;;;;;;;28.60;28.94;101584.84;4930142;29;19946;-71
2023/06/17 10:04:09;;;;;;;;;;;;;;;28.56;28.86;101588.56;4949413;28;20001;-72
2023/06/17 10:06:35;;;;;;;;;;;;;;;29.05;28.74;101586.31;4945720;29;19965;-71
2023/06/17 10:09:05;;;;;;;;;;;;;;;28.66;27.92;101591.28;4942283;28;20393;-71
2023/06/17 10:11:31;;;;;;;;;;;;;;;28.79;27.84;101590.56;4940975;29;20401;-71
2023/06/17 10:14:00;;;;;;;;;;;;;;;29.00;27.15;101577.91;4947460;29;20013;-71
2023/06/17 10:16:27;;;;;;;;;;;;;;;28.76;27.81;101575.06;4950295;29;19933;-71
2023/06/17 10:18:54;;;;;;;;;;;;;;;28.87;28.92;101587.91;4932732;28;19961;-71
2023/06/17 10:21:22;;;;;;;;;;;;;;;28.50;28.02;101570.84;4930112;29;20271;-71
2023/06/17 10:23:48;;;;;;;;;;;;;;;29.00;29.03;101581.59;4944637;29;20393;-71
2023/06/17 10:26:13;;;;;;;;;;;;;;;29.05;27.78;101572.22;4947285;29;19965;-71
2023/06/17 10:28:43;;;;;;;;;;;;;;;28.96;28.25;101577.69;4943985;29;20313;-71
2023/06/17 10:31:29;;;;;;;;;;;;;;;28.91;27.83;101577.72;4946379;29;19915;-71
2023/06/17 10:33:55;;;;;;;;;;;;;;;29.16;27.99;101565.28;4933428;28;19918;-71
2023/06/17 10:36:21;;;;;;;;;;;;;;;29.23;27.69;101571.44;4935040;29;19950;-71
2023/06/17 10:38:54;;;;;;;;;;;;;;;29.48;28.53;101563.41;4947334;28;19922;-71
2023/06/17 10:41:21;;;;;;;;;;;;;;;29.11;27.54;101571.00;4945910;28;19926;-71
2023/06/17 10:43:49;;;;;;;;;;;;;;;29.28;27.84;101568.53;4945777;28;19993;-71
2023/06/17 10:46:22;;;;;;;;;;;;;;;29.22;27.72;101564.94;4947362;28;19978;-72
2023/06/17 10:48:47;;;;;;;;;;;;;;;28.96;27.14;101562.72;4943337;29;20367;-72
2023/06/17 10:51:14;;;;;;;;;;;;;;;29.04;27.81;101554.47;4943960;28;19933;-71
2023/06/17 10:53:45;;;;;;;;;;;;;;;29.18;28.14;101557.38;4947669;28;20001;-71
2023/06/17 10:56:11;;;;;;;;;;;;;;;29.50;27.04;101554.66;4944097;29;20453;-71
2023/06/17 10:58:46;;;;;;;;;;;;;;;29.49;27.17;101553.78;4947054;29;20012;-70
2023/06/17 11:01:12;;;;;;;;;;;;;;;29.71;26.57;101550.41;4944916;28;19949;-70
2023/06/17 11:03:37;;;;;;;;;;;;;;;29.43;27.30;101545.69;4947869;28;19960;-71
2023/06/17 11:06:04;;;;;;;;;;;;;;;29.75;28.24;101541.00;4943872;29;19958;-71
2023/06/17 11:08:30;;;;;;;;;;;;;;;29.48;28.31;101545.63;4946839;28;19918;-71
2023/06/17 11:11:08;;;;;;;;;;;;;;;29.44;27.17;101542.56;4945373;29;19914;-71
2023/06/17 11:13:34;;;;;;;;;;;;;;;29.54;26.74;101535.97;4945679;28;20315;-71
2023/06/17 11:15:59;;;;;;;;;;;;;;;29.39;27.66;101541.81;4943090;29;19922;-71
2023/06/17 11:18:25;;;;;;;;;;;;;;;29.33;26.77;101531.72;4946610;29;20021;-71
2023/06/17 11:20:50;;;;;;;;;;;;;;;29.53;26.86;101537.06;4945930;28;19973;-70
2023/06/17 11:23:16;;;;;;;;;;;;;;;30.19;27.18;101523.59;4943449;28;20378;-71
2023/06/17 11:25:41;;;;;;;;;;;;;;;30.54;27.42;101532.22;4947590;29;19943;-71
2023/06/17 11:28:07;;;;;;;;;;;;;;;30.79;27.28;101522.41;4946465;28;19966;-71
2023/06/17 11:30:32;;;;;;;;;;;;;;;30.34;26.66;101532.59;4943903;28;20335;-71
2023/06/17 11:32:58;;;;;;;;;;;;;;;29.60;27.33;101523.47;4943512;28;19993;-71
2023/06/17 11:35:24;;;;;;;;;;;;;;;29.91;27.79;101518.94;4946472;29;20298;-71
2023/06/17 11:37:50;;;;;;;;;;;;;;;29.84;27.17;101521.34;4944759;29;19933;-71
2023/06/17 11:40:16;;;;;;;;;;;;;;;30.27;27.97;101517.19;4945715;28;19914;-71
2023/06/17 11:42:41;;;;;;;;;;;;;;;30.49;27.31;101517.31;4942575;29;19914;-72
2023/06/17 11:45:07;;;;;;;;;;;;;;;29.84;27.52;101512.88;4944208;29;20302;-71
2023/06/17 11:47:33;;;;;;;;;;;;;;;30.43;27.94;101510.94;4944361;29;20289;-72
2023/06/17 11:49:58;;;;;;;;;;;;;;;30.61;26.76;101510.00;4945289;28;19914;-71
2023/06/17 11:52:24;;;;;;;;;;;;;;;30.23;26.27;101497.19;4944354;28;20342;-72
2023/06/17 11:54:49;;;;;;;;;;;;;;;30.95;26.76;101516.06;4931335;29;19914;-72
2023/06/17 11:57:47;;;;;;;;;;;;;;;30.57;26.90;101503.28;4942632;29;19914;-72
2023/06/17 12:00:12;;;;;;;;;;;;;;;30.42;26.82;101502.75;4923106;28;19918;-72
2023/06/17 12:02:38;;;;;;;;;;;;;;;30.18;26.53;101502.94;4944701;28;19922;-71
2023/06/17 12:05:36;;;;;;;;;;;;;;;30.51;26.84;101492.41;4950094;28;20087;-72
2023/06/17 12:08:00;;;;;;;;;;;;;;;31.05;26.13;101493.19;4946029;29;20013;-72
2023/06/17 12:10:26;;;;;;;;;;;;;;;30.61;25.79;101495.00;4949365;28;20354;-72
2023/06/17 12:13:18;;;;;;;;;;;;;;;30.53;27.05;101495.75;4947902;28;19984;-71
2023/06/17 12:15:44;;;;;;;;;;;;;;;30.89;26.45;101491.03;4924660;29;19915;-71
2023/06/17 12:18:13;;;;;;;;;;;;;;;31.25;26.04;101489.94;4950150;29;20696;-72
2023/06/17 12:20:48;;;;;;;;;;;;;;;30.73;26.89;101490.53;4933981;29;19962;-72
2023/06/17 12:23:14;;;;;;;;;;;;;;;30.07;27.05;101484.47;4949117;28;20413;-71
2023/06/17 12:25:39;;;;;;;;;;;;;;;30.66;26.90;101481.63;4946203;28;20049;-71
2023/06/17 12:28:05;;;;;;;;;;;;;;;30.55;26.75;101487.78;4946998;28;20369;-71
2023/06/17 12:30:33;;;;;;;;;;;;;;;30.80;27.66;101481.63;4947398;28;19918;-72
2023/06/17 12:32:58;;;;;;;;;;;;;;;30.81;26.60;101486.13;4948826;29;20365;-72